createdAt,value
2022-10-11T00:00:47.163Z,100.00
2022-10-11T00:03:51.234Z,100.00
2022-10-11T00:06:54.651Z,100.00
2022-10-11T00:09:57.483Z,100.00
2022-10-11T00:13:00.417Z,100.00
2022-10-11T00:16:08.866Z,100.00
2022-10-11T00:19:13.014Z,100.00
2022-10-11T00:22:15.764Z,100.00
2022-10-11T00:25:18.683Z,100.00
2022-10-11T00:28:21.379Z,100.00
2022-10-11T00:31:24.599Z,100.00
2022-10-11T00:34:29.014Z,100.00
2022-10-11T00:37:31.649Z,100.00
2022-10-11T00:40:34.524Z,100.00
2022-10-11T00:43:37.589Z,100.00
2022-10-11T00:46:43.560Z,100.00
2022-10-11T00:49:51.828Z,100.00
2022-10-11T00:53:01.362Z,100.00
2022-10-11T00:56:08.049Z,100.00
2022-10-11T00:59:15.445Z,100.00
2022-10-11T01:02:19.833Z,100.00
2022-10-11T01:05:31.688Z,100.00
2022-10-11T01:08:35.097Z,100.00
2022-10-11T01:11:40.442Z,100.00
2022-10-11T01:15:09.970Z,100.00
2022-10-11T01:18:19.276Z,100.00
2022-10-11T01:21:39.387Z,100.00
2022-10-11T01:25:01.505Z,100.00
2022-10-11T01:28:21.429Z,100.00
2022-10-11T01:31:29.686Z,100.00
2022-10-11T01:34:38.083Z,100.00
2022-10-11T01:37:45.528Z,100.00
2022-10-11T01:40:51.732Z,100.00
2022-10-11T01:43:59.597Z,100.00
2022-10-11T01:47:03.545Z,100.00
2022-10-11T01:50:08.000Z,100.00
2022-10-11T01:53:25.943Z,100.00
2022-10-11T01:56:43.797Z,100.00
2022-10-11T02:00:00.293Z,100.00
2022-10-11T02:03:18.667Z,100.00
2022-10-11T02:06:31.148Z,100.00
2022-10-11T02:09:38.773Z,100.00
2022-10-11T02:12:45.008Z,100.00
2022-10-11T02:15:50.491Z,100.00
2022-10-11T02:18:57.730Z,100.00
2022-10-11T02:22:05.081Z,100.00
2022-10-11T02:25:11.086Z,100.00
2022-10-11T02:28:17.559Z,100.00
2022-10-11T02:31:21.894Z,100.00
2022-10-11T02:34:28.991Z,100.00
2022-10-11T02:37:36.272Z,100.00
2022-10-11T02:40:42.714Z,100.00
2022-10-11T02:43:51.814Z,100.00
2022-10-11T02:46:55.632Z,100.00
2022-10-11T02:50:00.986Z,100.00
2022-10-11T02:53:04.649Z,100.00
2022-10-11T02:56:08.193Z,100.00
2022-10-11T02:59:11.485Z,100.00
2022-10-11T03:02:14.146Z,100.00
2022-10-11T03:05:18.634Z,100.00
2022-10-11T03:08:21.244Z,100.00
2022-10-11T03:11:23.913Z,100.00
2022-10-11T03:14:26.602Z,100.00
2022-10-11T03:17:36.525Z,100.00
2022-10-11T03:20:41.546Z,100.00
2022-10-11T03:23:44.177Z,100.00
2022-10-11T03:26:46.957Z,100.00
2022-10-11T03:29:49.569Z,100.00
2022-10-11T03:32:52.253Z,100.00
2022-10-11T03:35:56.290Z,100.00
2022-10-11T03:39:03.535Z,100.00
2022-10-11T03:42:10.694Z,100.00
2022-10-11T03:45:15.727Z,100.00
2022-10-11T03:48:20.930Z,100.00
2022-10-11T03:51:27.738Z,100.00
2022-10-11T03:54:34.559Z,100.00
2022-10-11T03:57:39.387Z,100.00
2022-10-11T04:00:44.434Z,100.00
2022-10-11T04:03:49.505Z,100.00
2022-10-11T04:06:56.577Z,100.00
2022-10-11T04:10:01.674Z,100.00
2022-10-11T04:13:06.892Z,100.00
2022-10-11T04:16:11.936Z,100.00
2022-10-11T04:19:16.996Z,100.00
2022-10-11T04:22:23.689Z,100.00
2022-10-11T04:25:28.832Z,100.00
2022-10-11T04:28:33.853Z,100.00
2022-10-11T04:31:38.610Z,100.00
2022-10-11T04:34:43.893Z,100.00
2022-10-11T04:37:50.432Z,100.00
2022-10-11T04:40:55.475Z,100.00
2022-10-11T04:44:00.502Z,100.00
2022-10-11T04:47:06.558Z,100.00
2022-10-11T04:50:12.897Z,100.00
2022-10-11T04:53:19.310Z,100.00
2022-10-11T04:56:24.194Z,100.00
2022-10-11T04:59:29.451Z,100.00
2022-10-11T05:02:34.344Z,100.00
2022-10-11T05:05:39.191Z,100.00
2022-10-11T05:08:48.627Z,100.00
2022-10-11T05:11:59.066Z,100.00
2022-10-11T05:15:04.054Z,100.00
2022-10-11T05:18:08.924Z,100.00
2022-10-11T05:21:18.683Z,100.00
2022-10-11T05:24:27.472Z,100.00
2022-10-11T05:27:32.368Z,100.00
2022-10-11T05:30:37.629Z,100.00
2022-10-11T05:33:42.882Z,100.00
2022-10-11T05:36:49.163Z,100.00
2022-10-11T05:39:56.370Z,100.00
2022-10-11T05:43:02.192Z,100.00
2022-10-11T05:46:07.716Z,100.00
2022-10-11T05:49:13.081Z,100.00
2022-10-11T05:52:20.958Z,100.00
2022-10-11T05:55:28.565Z,100.00
2022-10-11T05:58:33.739Z,100.00
2022-10-11T06:01:39.500Z,100.00
2022-10-11T06:04:44.751Z,100.00
2022-10-11T06:07:49.822Z,100.00
2022-10-11T06:10:56.343Z,100.00
2022-10-11T06:14:01.326Z,100.00
2022-10-11T06:17:06.154Z,100.00
2022-10-11T06:20:12.152Z,100.00
2022-10-11T06:23:16.943Z,100.00
2022-10-11T06:26:23.598Z,100.00
2022-10-11T06:29:28.926Z,100.00
2022-10-11T06:32:34.132Z,100.00
2022-10-11T06:35:39.074Z,100.00
2022-10-11T06:38:45.415Z,100.00
2022-10-11T06:41:52.099Z,100.00
2022-10-11T06:44:56.755Z,100.00
2022-10-11T06:48:06.239Z,100.00
2022-10-11T06:51:11.041Z,100.00
2022-10-11T06:54:16.043Z,100.00
2022-10-11T06:57:22.487Z,100.00
2022-10-11T07:00:27.924Z,100.00
2022-10-11T07:03:33.955Z,100.00
2022-10-11T07:06:41.542Z,100.00
2022-10-11T07:09:47.213Z,100.00
2022-10-11T07:12:54.385Z,100.00
2022-10-11T07:15:59.421Z,100.00
2022-10-11T07:19:06.706Z,100.00
2022-10-11T07:22:11.561Z,100.00
2022-10-11T07:25:16.298Z,100.00
2022-10-11T07:28:47.341Z,100.00
2022-10-11T07:31:52.261Z,100.00
2022-10-11T07:34:57.335Z,100.00
2022-10-11T07:38:02.740Z,100.00
2022-10-11T07:41:08.317Z,100.00
2022-10-11T07:44:14.879Z,100.00
2022-10-11T07:47:21.520Z,100.00
2022-10-11T07:50:27.934Z,100.00
2022-10-11T07:53:32.835Z,100.00
2022-10-11T07:56:40.782Z,100.00
2022-10-11T07:59:50.230Z,100.00
2022-10-11T08:02:55.154Z,100.00
2022-10-11T08:06:04.021Z,100.00
2022-10-11T08:09:09.664Z,100.00
2022-10-11T08:12:14.481Z,99.93
2022-10-11T08:15:20.969Z,99.90
2022-10-11T08:18:27.977Z,100.00
2022-10-11T08:21:35.964Z,100.00
2022-10-11T08:24:40.944Z,99.56
2022-10-11T08:27:45.881Z,99.15
2022-10-11T08:30:53.293Z,98.84
2022-10-11T08:33:58.352Z,99.20
2022-10-11T08:37:02.998Z,98.79
2022-10-11T08:40:09.587Z,99.30
2022-10-11T08:43:25.420Z,98.87
2022-10-11T08:46:35.624Z,99.41
2022-10-11T08:49:41.831Z,99.07
2022-10-11T08:52:52.938Z,97.53
2022-10-11T08:55:57.966Z,98.32
2022-10-11T08:59:07.654Z,98.79
2022-10-11T09:02:31.760Z,98.98
2022-10-11T09:06:03.559Z,99.50
2022-10-11T09:09:23.421Z,99.07
2022-10-11T09:12:40.962Z,98.17
2022-10-11T09:15:54.273Z,98.86
2022-10-11T09:19:19.974Z,97.90
2022-10-11T09:22:31.114Z,98.35
2022-10-11T09:25:40.517Z,98.37
2022-10-11T09:29:00.919Z,97.41
2022-10-11T09:32:15.815Z,96.44
2022-10-11T09:35:24.188Z,94.69
2022-10-11T09:38:39.598Z,94.62
2022-10-11T09:41:51.663Z,95.41
2022-10-11T09:44:54.924Z,96.43
2022-10-11T09:48:00.644Z,96.60
2022-10-11T09:51:12.190Z,95.03
2022-10-11T09:54:14.857Z,95.86
2022-10-11T09:57:21.553Z,95.55
2022-10-11T10:00:26.010Z,95.74
2022-10-11T10:03:31.073Z,96.40
2022-10-11T10:06:35.346Z,96.15
2022-10-11T10:09:37.948Z,95.34
2022-10-11T10:12:41.117Z,95.07
2022-10-11T10:15:47.963Z,95.29
2022-10-11T10:18:54.195Z,95.11
2022-10-11T10:21:58.648Z,95.11
2022-10-11T10:25:05.981Z,95.51
2022-10-11T10:28:19.986Z,95.89
2022-10-11T10:31:24.932Z,95.21
2022-10-11T10:34:31.038Z,95.43
2022-10-11T10:37:39.579Z,95.67
2022-10-11T10:40:45.225Z,95.88
2022-10-11T10:43:53.552Z,94.62
2022-10-11T10:47:07.514Z,93.88
2022-10-11T10:50:17.957Z,94.30
2022-10-11T10:53:28.551Z,94.57
2022-10-11T10:56:39.066Z,94.03
2022-10-11T10:59:55.191Z,93.59
2022-10-11T11:03:02.074Z,94.20
2022-10-11T11:06:08.563Z,94.03
2022-10-11T11:09:29.194Z,93.85
2022-10-11T11:12:46.016Z,93.34
2022-10-11T11:15:59.568Z,93.56
2022-10-11T11:19:08.094Z,92.27
2022-10-11T11:22:21.272Z,93.11
2022-10-11T11:25:35.328Z,93.19
2022-10-11T11:28:50.812Z,93.19
2022-10-11T11:32:11.748Z,92.97
2022-10-11T11:35:27.230Z,93.29
2022-10-11T11:38:42.185Z,93.07
2022-10-11T11:41:50.937Z,92.94
2022-10-11T11:44:54.512Z,92.63
2022-10-11T11:48:03.045Z,91.72
2022-10-11T11:51:11.370Z,92.13
2022-10-11T11:54:30.496Z,91.36
2022-10-11T11:57:49.854Z,91.32
2022-10-11T12:00:58.008Z,91.64
2022-10-11T12:04:05.974Z,91.52
2022-10-11T12:07:16.244Z,91.24
2022-10-11T12:10:28.850Z,92.05
2022-10-11T12:13:36.885Z,92.32
2022-10-11T12:17:15.632Z,91.51
2022-10-11T12:20:25.332Z,90.97
2022-10-11T12:23:49.190Z,91.25
2022-10-11T12:26:56.399Z,90.76
2022-10-11T12:29:59.021Z,90.80
2022-10-11T12:33:13.628Z,90.50
2022-10-11T12:36:37.658Z,91.27
2022-10-11T12:39:48.418Z,91.01
2022-10-11T12:43:20.852Z,89.58
2022-10-11T12:46:59.530Z,90.05
2022-10-11T12:50:16.636Z,89.51
2022-10-11T12:53:31.587Z,88.46
2022-10-11T12:56:50.771Z,89.10
2022-10-11T12:59:53.717Z,89.91
2022-10-11T13:03:00.882Z,89.91
2022-10-11T13:06:15.032Z,89.71
2022-10-11T13:09:28.517Z,90.41
2022-10-11T13:12:36.955Z,90.48
2022-10-11T13:15:44.877Z,90.83
2022-10-11T13:18:49.905Z,90.22
2022-10-11T13:21:56.798Z,90.32
2022-10-11T13:24:59.464Z,90.17
2022-10-11T13:28:02.097Z,90.42
2022-10-11T13:31:05.663Z,89.31
2022-10-11T13:34:12.090Z,89.39
2022-10-11T13:37:20.481Z,90.31
2022-10-11T13:40:24.189Z,90.57
2022-10-11T13:43:29.813Z,90.87
2022-10-11T13:46:34.329Z,89.96
2022-10-11T13:49:39.796Z,89.99
2022-10-11T13:52:56.196Z,90.42
2022-10-11T13:56:00.877Z,90.39
2022-10-11T13:59:04.029Z,88.71
2022-10-11T14:02:18.868Z,88.86
2022-10-11T14:05:29.542Z,88.59
2022-10-11T14:08:38.673Z,87.62
2022-10-11T14:11:41.369Z,87.24
2022-10-11T14:14:44.449Z,84.99
2022-10-11T14:17:47.134Z,85.15
2022-10-11T14:20:49.797Z,85.41
2022-10-11T14:23:55.795Z,82.92
2022-10-11T14:26:59.072Z,81.91
2022-10-11T14:30:28.216Z,80.25
2022-10-11T14:33:24.574Z,79.21
2022-10-11T14:36:27.574Z,79.89
2022-10-11T14:39:33.583Z,81.08
2022-10-11T14:42:36.265Z,81.90
2022-10-11T14:45:38.945Z,82.13
2022-10-11T14:48:55.044Z,82.01
2022-10-11T14:51:59.669Z,81.88
2022-10-11T14:55:03.789Z,81.95
2022-10-11T14:58:08.196Z,82.83
2022-10-11T15:01:13.309Z,83.60
2022-10-11T15:04:15.997Z,84.57
2022-10-11T15:07:19.013Z,85.07
2022-10-11T15:10:26.000Z,84.95
2022-10-11T15:13:28.608Z,85.20
2022-10-11T15:16:31.462Z,85.63
2022-10-11T15:19:34.074Z,86.30
2022-10-11T15:22:36.745Z,87.34
2022-10-11T15:25:42.201Z,87.67
2022-10-11T15:28:45.226Z,87.46
2022-10-11T15:31:49.211Z,87.50
2022-10-11T15:34:51.858Z,88.11
2022-10-11T15:37:59.270Z,88.24
2022-10-11T15:41:09.601Z,88.04
2022-10-11T15:44:15.435Z,87.73
2022-10-11T15:47:23.520Z,87.61
2022-10-11T15:50:40.507Z,87.87
2022-10-11T15:53:47.387Z,88.07
2022-10-11T15:56:54.689Z,88.62
2022-10-11T16:00:00.232Z,89.37
2022-10-11T16:03:09.069Z,89.03
2022-10-11T16:06:16.824Z,89.55
2022-10-11T16:09:23.046Z,90.31
2022-10-11T16:12:33.284Z,90.43
2022-10-11T16:15:43.031Z,90.65
2022-10-11T16:19:00.562Z,90.59
2022-10-11T16:22:20.139Z,90.94
2022-10-11T16:25:30.439Z,91.42
2022-10-11T16:28:43.477Z,91.33
2022-10-11T16:31:54.522Z,91.94
2022-10-11T16:35:10.420Z,92.23
2022-10-11T16:38:22.301Z,92.88
2022-10-11T16:41:37.483Z,93.23
2022-10-11T16:44:55.003Z,93.55
2022-10-11T16:48:06.500Z,93.51
2022-10-11T16:51:14.487Z,94.14
2022-10-11T16:54:22.922Z,94.22
2022-10-11T16:57:35.045Z,94.71
2022-10-11T17:00:49.778Z,95.24
2022-10-11T17:03:59.849Z,95.19
2022-10-11T17:07:12.728Z,95.94
2022-10-11T17:10:39.732Z,96.39
2022-10-11T17:13:47.200Z,96.41
2022-10-11T17:16:56.526Z,96.66
2022-10-11T17:20:04.632Z,97.17
2022-10-11T17:23:11.000Z,97.51
2022-10-11T17:26:20.783Z,97.95
2022-10-11T17:29:26.721Z,97.84
2022-10-11T17:32:37.004Z,98.26
2022-10-11T17:35:43.406Z,98.18
2022-10-11T17:38:49.683Z,98.09
2022-10-11T17:41:56.299Z,98.40
2022-10-11T17:45:02.757Z,98.42
2022-10-11T17:48:15.044Z,98.96
2022-10-11T17:51:26.823Z,98.37
2022-10-11T17:54:33.385Z,98.23
2022-10-11T17:57:39.383Z,98.14
2022-10-11T18:00:47.157Z,98.25
2022-10-11T18:04:00.317Z,98.61
2022-10-11T18:07:09.203Z,99.06
2022-10-11T18:10:15.970Z,99.68
2022-10-11T18:13:22.830Z,100.00
2022-10-11T18:16:34.035Z,100.00
2022-10-11T18:19:47.524Z,100.00
2022-10-11T18:22:58.682Z,100.00
2022-10-11T18:26:24.418Z,100.00
2022-10-11T18:29:38.628Z,100.00
2022-10-11T18:32:45.032Z,100.00
2022-10-11T18:36:09.800Z,99.91
2022-10-11T18:39:19.188Z,100.00
2022-10-11T18:42:29.191Z,100.00
2022-10-11T18:45:37.716Z,100.00
2022-10-11T18:48:54.285Z,100.00
2022-10-11T18:52:08.401Z,100.00
2022-10-11T18:55:16.251Z,100.00
2022-10-11T18:58:25.257Z,100.00
2022-10-11T19:01:34.690Z,100.00
2022-10-11T19:04:43.880Z,100.00
2022-10-11T19:11:56.431Z,100.00
2022-10-11T19:15:14.897Z,100.00
2022-10-11T19:18:49.448Z,100.00
2022-10-11T19:22:13.631Z,100.00
2022-10-11T19:25:56.850Z,100.00
2022-10-11T19:29:09.941Z,100.00
2022-10-11T19:32:19.011Z,100.00
2022-10-11T19:35:35.704Z,100.00
2022-10-11T19:38:52.116Z,100.00
2022-10-11T19:42:07.232Z,100.00
2022-10-11T19:45:16.123Z,100.00
2022-10-11T19:48:26.083Z,100.00
2022-10-11T19:51:45.980Z,100.00
2022-10-11T19:54:55.909Z,100.00
2022-10-11T19:58:08.194Z,100.00
2022-10-11T20:01:18.805Z,100.00
2022-10-11T20:04:51.640Z,100.00
2022-10-11T20:07:59.607Z,100.00
2022-10-11T20:14:44.782Z,100.00
2022-10-11T20:17:52.574Z,100.00
2022-10-11T20:21:00.157Z,100.00
2022-10-11T20:24:09.652Z,100.00
2022-10-11T20:27:15.498Z,100.00
2022-10-11T20:30:23.512Z,100.00
2022-10-11T20:33:28.035Z,100.00
2022-10-11T20:36:32.791Z,100.00
2022-10-11T20:39:41.759Z,100.00
2022-10-11T20:42:46.527Z,100.00
2022-10-11T20:46:10.227Z,100.00
2022-10-11T20:49:16.898Z,100.00
2022-10-11T20:52:34.326Z,100.00
2022-10-11T20:55:59.703Z,100.00
2022-10-11T20:59:12.443Z,100.00
2022-10-11T21:02:43.319Z,100.00
2022-10-11T21:06:17.822Z,100.00
2022-10-11T21:09:28.968Z,100.00
2022-10-11T21:12:40.102Z,100.00
2022-10-11T21:15:58.160Z,100.00
2022-10-11T21:19:07.132Z,100.00
2022-10-11T21:22:13.495Z,100.00
2022-10-11T21:25:20.443Z,100.00
2022-10-11T21:28:27.593Z,100.00
2022-10-11T21:31:36.400Z,100.00
2022-10-11T21:34:46.159Z,100.00
2022-10-11T21:37:53.620Z,100.00
2022-10-11T21:40:59.889Z,100.00
2022-10-11T21:44:10.931Z,100.00
2022-10-11T21:47:19.515Z,100.00
2022-10-11T21:50:31.068Z,100.00
2022-10-11T21:53:37.439Z,100.00
2022-10-11T21:56:44.497Z,100.00
2022-10-11T22:15:20.690Z,100.00
2022-10-11T22:18:33.102Z,100.00
2022-10-11T22:21:45.710Z,100.00
2022-10-11T22:24:58.940Z,100.00
2022-10-11T22:28:10.297Z,100.00
2022-10-11T22:31:26.013Z,100.00
2022-10-11T22:34:38.427Z,100.00
2022-10-11T22:37:51.343Z,100.00
2022-10-11T22:41:03.547Z,100.00
2022-10-11T22:44:16.091Z,100.00
2022-10-11T22:47:28.460Z,100.00
2022-10-11T22:50:35.745Z,100.00
2022-10-11T22:53:45.338Z,100.00
2022-10-11T22:56:55.255Z,100.00
2022-10-11T23:00:03.235Z,100.00
2022-10-11T23:03:12.343Z,100.00
2022-10-11T23:06:19.577Z,100.00
2022-10-11T23:09:30.017Z,100.00
2022-10-11T23:12:40.709Z,100.00
2022-10-11T23:15:48.095Z,100.00
2022-10-11T23:18:56.016Z,99.97
2022-10-11T23:22:01.722Z,100.00
2022-10-11T23:25:10.300Z,99.94
2022-10-11T23:28:19.092Z,99.90
2022-10-11T23:31:27.022Z,99.85
2022-10-11T23:34:35.105Z,99.96
2022-10-11T23:37:42.958Z,100.00
2022-10-11T23:40:49.431Z,100.00
2022-10-11T23:43:58.048Z,100.00
2022-10-11T23:47:04.504Z,100.00
2022-10-11T23:50:13.849Z,100.00
2022-10-11T23:53:20.458Z,100.00
2022-10-11T23:56:26.516Z,99.79
2022-10-11T23:59:34.979Z,100.00
